createdAt,value
2018-04-13T00:00:01.149Z,98963.77
2018-04-13T00:02:28.649Z,98966.18
2018-04-13T00:04:56.146Z,98971.66
2018-04-13T00:07:23.641Z,98973.94
2018-04-13T00:09:51.324Z,98970.94
2018-04-13T00:12:18.819Z,98970.17
2018-04-13T00:14:46.321Z,98974.61
2018-04-13T00:17:13.816Z,98977.98
2018-04-13T00:19:41.309Z,98975.36
2018-04-13T00:22:09.005Z,98980.86
2018-04-13T00:24:36.487Z,98989.42
2018-04-13T00:27:03.964Z,98984.69
2018-04-13T00:29:31.466Z,98985.37
2018-04-13T00:31:58.949Z,98983.78
2018-04-13T00:34:26.465Z,98989.92
2018-04-13T00:36:53.961Z,98985.77
2018-04-13T00:39:21.448Z,98980.82
2018-04-13T00:41:48.967Z,98984.36
2018-04-13T00:44:16.473Z,98984.42
2018-04-13T00:46:44.195Z,98983.28
2018-04-13T00:49:11.689Z,98982.75
2018-04-13T00:51:39.165Z,98980.31
2018-04-13T00:54:06.729Z,98979.53
2018-04-13T00:56:34.208Z,98984.86
2018-04-13T00:59:01.962Z,98978.62
2018-04-13T01:01:29.473Z,98980.13
2018-04-13T01:03:56.949Z,98978.52
2018-04-13T01:06:24.453Z,98983.89
2018-04-13T01:08:51.931Z,98980.73
2018-04-13T01:11:19.619Z,98980.92
2018-04-13T01:13:47.109Z,98988.62
2018-04-13T01:16:14.585Z,98987.52
2018-04-13T01:18:42.189Z,98985.77
2018-04-13T01:21:09.673Z,98985.45
2018-04-13T01:23:37.185Z,98986.64
2018-04-13T01:26:04.663Z,98985.36
2018-04-13T01:28:32.149Z,98982.63
2018-04-13T01:30:59.653Z,98975.48
2018-04-13T01:33:27.125Z,98973.94
2018-04-13T01:35:54.821Z,98983.73
2018-04-13T01:38:22.297Z,98987.94
2018-04-13T01:40:49.769Z,98986.52
2018-04-13T01:43:17.293Z,98986.62
2018-04-13T01:45:44.780Z,98982.94
2018-04-13T01:48:12.305Z,98986.72
2018-04-13T01:50:39.801Z,98992.91
2018-04-13T01:53:07.325Z,98992.61
2018-04-13T01:55:34.844Z,98985.29
2018-04-13T01:58:02.360Z,98980.59
2018-04-13T02:00:29.869Z,98980.27
2018-04-13T02:02:57.360Z,98975.06
2018-04-13T02:05:25.065Z,98979.00
2018-04-13T02:07:52.544Z,98986.48
2018-04-13T02:10:20.022Z,98981.75
2018-04-13T02:12:47.541Z,98982.44
2018-04-13T02:15:15.018Z,98976.62
2018-04-13T02:17:42.525Z,98975.48
2018-04-13T02:20:10.012Z,98976.70
2018-04-13T02:22:37.879Z,98976.26
2018-04-13T02:25:05.357Z,98974.57
2018-04-13T02:27:32.831Z,98971.06
2018-04-13T02:30:00.356Z,98972.84
2018-04-13T02:32:27.833Z,98969.54
2018-04-13T02:34:55.625Z,98971.92
2018-04-13T02:37:23.109Z,98974.02
2018-04-13T02:39:50.580Z,98982.70
2018-04-13T02:42:18.125Z,98978.41
2018-04-13T02:44:45.606Z,98983.23
2018-04-13T02:47:13.278Z,98977.90
2018-04-13T02:49:40.749Z,98988.30
2018-04-13T02:52:08.225Z,98999.39
2018-04-13T02:54:35.738Z,99004.16
2018-04-13T02:57:03.214Z,99009.00
2018-04-13T02:59:30.731Z,99006.77
2018-04-13T03:01:58.212Z,98999.75
2018-04-13T03:04:25.689Z,98997.42
2018-04-13T03:06:53.184Z,99000.38
2018-04-13T03:09:20.656Z,99009.45
2018-04-13T03:11:48.386Z,99008.62
2018-04-13T03:14:15.864Z,99008.33
2018-04-13T03:16:43.364Z,99007.68
2018-04-13T03:19:10.893Z,99010.73
2018-04-13T03:21:38.391Z,99012.22
2018-04-13T03:24:05.908Z,99012.17
2018-04-13T03:26:33.417Z,99017.95
2018-04-13T03:29:00.902Z,99016.59
2018-04-13T03:31:28.406Z,99013.25
2018-04-13T03:33:55.889Z,99019.98
2018-04-13T03:36:23.396Z,99021.00
2018-04-13T03:38:50.872Z,99018.16
2018-04-13T03:41:18.346Z,99021.42
2018-04-13T03:43:45.847Z,99022.20
2018-04-13T03:46:13.372Z,99022.08
2018-04-13T03:48:40.965Z,99024.56
2018-04-13T03:51:08.444Z,99023.06
2018-04-13T03:53:35.916Z,99021.05
2018-04-13T03:56:03.417Z,99019.80
2018-04-13T03:58:30.945Z,99024.48
2018-04-13T04:00:58.640Z,99035.45
2018-04-13T04:03:26.138Z,99027.63
2018-04-13T04:05:53.972Z,99040.56
2018-04-13T04:08:21.490Z,99043.97
2018-04-13T04:10:48.998Z,99043.95
2018-04-13T04:13:16.891Z,99038.59
2018-04-13T04:15:44.366Z,99051.54
2018-04-13T04:18:12.815Z,99054.47
2018-04-13T04:20:52.241Z,99056.87
2018-04-13T04:23:31.362Z,99060.90
2018-04-13T04:26:10.596Z,99058.50
2018-04-13T04:28:38.092Z,99070.59
2018-04-13T04:31:05.845Z,99069.89
2018-04-13T04:33:33.324Z,99070.13
2018-04-13T04:36:00.810Z,99063.58
2018-04-13T04:38:28.321Z,99066.74
2018-04-13T04:40:55.808Z,99074.37
2018-04-13T04:43:23.340Z,99079.55
2018-04-13T04:45:50.813Z,99088.05
2018-04-13T04:48:18.289Z,99080.59
2018-04-13T04:50:45.800Z,99089.23
2018-04-13T04:53:13.275Z,99092.08
2018-04-13T04:55:40.809Z,99094.72
2018-04-13T04:58:08.322Z,99100.68
2018-04-13T05:00:35.830Z,99106.69
2018-04-13T05:03:03.332Z,99098.01
2018-04-13T05:05:30.809Z,99108.04
2018-04-13T05:07:58.397Z,99112.72
2018-04-13T05:10:25.894Z,99116.72
2018-04-13T05:12:53.369Z,99112.66
2018-04-13T05:15:20.939Z,99116.39
2018-04-13T05:17:48.429Z,99120.11
2018-04-13T05:20:15.973Z,99122.83
2018-04-13T05:22:43.467Z,99124.86
2018-04-13T05:25:10.949Z,99126.22
2018-04-13T05:27:38.452Z,99127.84
2018-04-13T05:30:05.929Z,99132.25
2018-04-13T05:32:33.590Z,99135.95
2018-04-13T05:35:01.075Z,99128.56
2018-04-13T05:37:28.556Z,99132.20
2018-04-13T05:39:56.056Z,99134.98
2018-04-13T05:42:23.536Z,99141.12
2018-04-13T05:44:51.252Z,99149.05
2018-04-13T05:47:18.729Z,99147.91
2018-04-13T05:49:46.249Z,99140.84
2018-04-13T05:52:13.753Z,99139.62
2018-04-13T05:54:41.244Z,99149.58
2018-04-13T05:57:08.790Z,99140.31
2018-04-13T05:59:36.291Z,99142.31
2018-04-13T06:02:03.797Z,99145.23
2018-04-13T06:04:31.313Z,99145.47
2018-04-13T06:06:58.805Z,99144.59
2018-04-13T06:09:26.499Z,99149.95
2018-04-13T06:11:53.982Z,99154.84
2018-04-13T06:14:21.476Z,99152.93
2018-04-13T06:16:48.993Z,99148.03
2018-04-13T06:19:16.482Z,99145.72
2018-04-13T06:21:44.212Z,99152.09
2018-04-13T06:24:11.710Z,99159.13
2018-04-13T06:26:39.270Z,99156.13
2018-04-13T06:29:06.785Z,99158.02
2018-04-13T06:31:34.365Z,99159.42
2018-04-13T06:34:01.896Z,99157.42
2018-04-13T06:36:29.405Z,99158.27
2018-04-13T06:38:56.910Z,99164.74
2018-04-13T06:41:24.440Z,99160.73
2018-04-13T06:43:51.941Z,99154.94
2018-04-13T06:46:19.476Z,99164.81
2018-04-13T06:48:47.020Z,99162.23
2018-04-13T06:51:14.478Z,99160.81
2018-04-13T06:53:41.989Z,99164.80
2018-04-13T06:56:09.474Z,99170.47
2018-04-13T06:58:37.166Z,99179.01
2018-04-13T07:01:04.665Z,99180.13
2018-04-13T07:03:32.158Z,99184.48
2018-04-13T07:05:59.685Z,99188.86
2018-04-13T07:08:27.173Z,99183.44
2018-04-13T07:10:54.941Z,99192.87
2018-04-13T07:13:22.440Z,99193.73
2018-04-13T07:15:49.948Z,99191.19
2018-04-13T07:18:17.461Z,99199.13
2018-04-13T07:20:44.953Z,99196.91
2018-04-13T07:23:12.521Z,99196.92
2018-04-13T07:25:40.020Z,99197.64
2018-04-13T07:28:07.510Z,99195.92
2018-04-13T07:30:35.022Z,99194.25
2018-04-13T07:33:02.517Z,99198.64
2018-04-13T07:35:30.257Z,99207.84
2018-04-13T07:37:57.751Z,99212.19
2018-04-13T07:40:25.265Z,99218.27
2018-04-13T07:42:52.779Z,99216.63
2018-04-13T07:45:20.271Z,99236.09
2018-04-13T07:47:48.181Z,99241.80
2018-04-13T07:50:15.429Z,99255.30
2018-04-13T07:52:42.946Z,99250.53
2018-04-13T07:55:10.456Z,99248.11
2018-04-13T07:57:38.007Z,99253.00
2018-04-13T08:00:05.661Z,99263.50
2018-04-13T08:02:33.153Z,99266.80
2018-04-13T08:05:00.835Z,99284.53
2018-04-13T08:07:28.345Z,99287.53
2018-04-13T08:09:55.868Z,99301.50
2018-04-13T08:12:23.695Z,99304.08
2018-04-13T08:14:51.159Z,99312.50
2018-04-13T08:17:18.678Z,99324.77
2018-04-13T08:19:46.199Z,99332.20
2018-04-13T08:22:13.705Z,99337.83
2018-04-13T08:24:41.580Z,99344.80
2018-04-13T08:27:09.075Z,99358.70
2018-04-13T08:29:36.594Z,99370.52
2018-04-13T08:32:04.118Z,99373.38
2018-04-13T08:34:31.605Z,99378.71
2018-04-13T08:36:59.241Z,99388.47
2018-04-13T08:39:26.735Z,99394.61
2018-04-13T08:41:54.236Z,99397.11
2018-04-13T08:44:21.785Z,99415.47
2018-04-13T08:46:49.308Z,99421.03
2018-04-13T08:49:16.968Z,99434.40
2018-04-13T08:51:44.410Z,99426.44
2018-04-13T08:54:11.927Z,99435.50
2018-04-13T08:56:39.530Z,99422.65
2018-04-13T08:59:07.022Z,99423.29
2018-04-13T09:01:34.879Z,99417.92
2018-04-13T09:04:02.364Z,99425.95
2018-04-13T09:06:29.922Z,99430.54
2018-04-13T09:08:57.444Z,99434.30
2018-04-13T09:11:24.940Z,99444.31
2018-04-13T09:13:52.462Z,99437.39
2018-04-13T09:16:19.981Z,99434.01
2018-04-13T09:18:47.541Z,99439.63
2018-04-13T09:21:15.053Z,99444.59
2018-04-13T09:23:42.541Z,99439.94
2018-04-13T09:26:10.269Z,99452.00
2018-04-13T09:28:37.765Z,99455.13
2018-04-13T09:31:05.273Z,99464.84
2018-04-13T09:33:32.788Z,99467.52
2018-04-13T09:36:00.277Z,99477.94
2018-04-13T09:38:27.897Z,99475.86
2018-04-13T09:40:55.385Z,99476.36
2018-04-13T09:43:22.928Z,99469.84
2018-04-13T09:45:50.437Z,99479.93
2018-04-13T09:48:17.925Z,99480.63
2018-04-13T09:50:45.577Z,99487.15
2018-04-13T09:53:13.085Z,99490.22
2018-04-13T09:55:40.641Z,99492.90
2018-04-13T09:58:08.141Z,99493.77
2018-04-13T10:00:35.626Z,99495.88
2018-04-13T10:06:03.308Z,99494.19
2018-04-13T10:08:30.845Z,99496.10
2018-04-13T10:10:58.331Z,99505.33
2018-04-13T10:13:25.821Z,99508.86
2018-04-13T10:15:53.329Z,99505.16
2018-04-13T10:18:20.817Z,99507.68
2018-04-13T10:20:48.348Z,99510.92
2018-04-13T10:23:15.840Z,99515.41
2018-04-13T10:25:43.329Z,99526.14
2018-04-13T10:28:10.876Z,99540.28
2018-04-13T10:30:38.354Z,99542.27
2018-04-13T10:33:06.148Z,99543.26
2018-04-13T10:35:33.629Z,99548.25
2018-04-13T10:38:01.113Z,99555.20
2018-04-13T10:40:28.649Z,99551.91
2018-04-13T10:42:56.181Z,99559.42
2018-04-13T10:45:23.848Z,99559.16
2018-04-13T10:47:51.333Z,99569.27
2018-04-13T10:50:18.817Z,99578.22
2018-04-13T10:52:46.329Z,99582.29
2018-04-13T10:55:13.814Z,99583.65
2018-04-13T10:57:41.322Z,99581.37
2018-04-13T11:00:08.824Z,99581.27
2018-04-13T11:02:36.300Z,99582.90
2018-04-13T11:05:03.825Z,99583.33
2018-04-13T11:07:31.298Z,99587.39
2018-04-13T11:09:58.954Z,99585.17
2018-04-13T11:12:26.445Z,99599.22
2018-04-13T11:14:53.931Z,99608.07
2018-04-13T11:17:21.434Z,99609.25
2018-04-13T11:19:48.913Z,99612.70
2018-04-13T11:22:16.569Z,99610.73
2018-04-13T11:24:44.052Z,99620.00
2018-04-13T11:27:11.528Z,99628.19
2018-04-13T11:29:39.040Z,99630.17
2018-04-13T11:32:06.519Z,99635.84
2018-04-13T11:34:34.050Z,99640.11
2018-04-13T11:37:01.541Z,99644.38
2018-04-13T11:39:29.057Z,99650.48
2018-04-13T11:41:56.565Z,99657.52
2018-04-13T11:44:25.320Z,99665.66
2018-04-13T11:46:53.972Z,99665.30
2018-04-13T11:49:21.478Z,99668.84
2018-04-13T11:51:48.990Z,99665.77
2018-04-13T11:54:16.493Z,99676.72
2018-04-13T11:56:43.983Z,99675.86
2018-04-13T11:59:11.593Z,99682.66
2018-04-13T12:01:39.097Z,99687.23
2018-04-13T12:04:06.574Z,99693.71
2018-04-13T12:06:34.097Z,99698.58
2018-04-13T12:09:01.597Z,99703.76
2018-04-13T12:11:29.240Z,99705.68
2018-04-13T12:13:56.725Z,99713.38
2018-04-13T12:16:24.202Z,99720.93
2018-04-13T12:18:51.730Z,99714.70
2018-04-13T12:21:19.216Z,99718.42
2018-04-13T12:23:46.908Z,99723.33
2018-04-13T12:26:14.402Z,99713.95
2018-04-13T12:28:41.897Z,99709.94
2018-04-13T12:31:09.441Z,99706.84
2018-04-13T12:33:36.973Z,99702.91
2018-04-13T12:36:04.497Z,99708.10
2018-04-13T12:38:31.985Z,99706.49
2018-04-13T12:40:59.461Z,99707.55
2018-04-13T12:43:26.961Z,99711.34
2018-04-13T12:45:54.437Z,99714.35
2018-04-13T12:48:21.969Z,99717.34
2018-04-13T12:50:49.477Z,99723.05
2018-04-13T12:53:16.962Z,99718.63
2018-04-13T12:55:44.544Z,99720.70
2018-04-13T12:58:11.964Z,99733.97
2018-04-13T13:00:39.491Z,99736.23
2018-04-13T13:03:06.971Z,99732.79
2018-04-13T13:05:34.627Z,99737.10
2018-04-13T13:08:02.146Z,99734.74
2018-04-13T13:10:29.641Z,99742.27
2018-04-13T13:12:57.342Z,99747.66
2018-04-13T13:15:24.830Z,99753.34
2018-04-13T13:17:52.349Z,99752.02
2018-04-13T13:20:19.851Z,99753.53
2018-04-13T13:22:47.333Z,99753.47
2018-04-13T13:25:14.849Z,99745.27
2018-04-13T13:27:42.347Z,99739.49
2018-04-13T13:30:09.838Z,99743.95
2018-04-13T13:32:38.844Z,99742.91
2018-04-13T13:35:06.425Z,99747.69
2018-04-13T13:37:33.913Z,99748.13
2018-04-13T13:40:01.413Z,99754.80
2018-04-13T13:42:28.890Z,99758.34
2018-04-13T13:44:56.482Z,99754.86
2018-04-13T13:47:23.969Z,99757.81
2018-04-13T13:49:53.206Z,99766.52
2018-04-13T13:52:20.793Z,99766.27
2018-04-13T13:54:48.283Z,99764.44
2018-04-13T13:57:15.815Z,99764.80
2018-04-13T13:59:43.301Z,99775.58
2018-04-13T14:02:10.783Z,99774.40
2018-04-13T14:04:39.186Z,99784.23
2018-04-13T14:07:06.725Z,99778.60
2018-04-13T14:09:34.359Z,99785.63
2018-04-13T14:12:01.886Z,99783.47
2018-04-13T14:14:29.412Z,99791.56
2018-04-13T14:16:56.949Z,99789.64
2018-04-13T14:19:24.426Z,99810.84
2018-04-13T14:21:52.096Z,99803.64
2018-04-13T14:24:19.596Z,99809.09
2018-04-13T14:26:47.094Z,99816.05
2018-04-13T14:29:14.603Z,99835.56
2018-04-13T14:31:42.077Z,99830.33
2018-04-13T14:34:09.778Z,99842.59
2018-04-13T14:36:37.258Z,99841.72
2018-04-13T14:39:04.733Z,99850.55
2018-04-13T14:41:32.261Z,99854.52
2018-04-13T14:43:59.775Z,99860.20
2018-04-13T14:49:01.080Z,99882.38
2018-04-13T14:51:28.598Z,99876.83
2018-04-13T14:53:56.089Z,99878.72
2018-04-13T14:56:23.563Z,99881.80
2018-04-13T14:58:51.061Z,99881.84
2018-04-13T15:01:18.545Z,99883.77
2018-04-13T15:03:46.453Z,99885.17
2018-04-13T15:06:13.953Z,99888.13
2018-04-13T15:08:41.437Z,99893.11
2018-04-13T15:11:08.949Z,99889.80
2018-04-13T15:13:36.454Z,99901.70
2018-04-13T15:16:03.981Z,99902.39
2018-04-13T15:18:31.562Z,99902.50
2018-04-13T15:20:59.037Z,99909.70
2018-04-13T15:23:26.541Z,99911.66
2018-04-13T15:25:54.045Z,99907.53
2018-04-13T15:28:21.564Z,99910.74
2018-04-13T15:30:49.053Z,99911.66
2018-04-13T15:33:16.537Z,99912.41
2018-04-13T15:35:44.068Z,99920.28
2018-04-13T15:38:11.553Z,99924.27
2018-04-13T15:40:39.409Z,99915.30
2018-04-13T15:43:06.886Z,99915.07
2018-04-13T15:45:34.362Z,99915.20
2018-04-13T15:48:01.885Z,99921.03
2018-04-13T15:50:29.421Z,99915.81
2018-04-13T15:52:57.273Z,99923.63
2018-04-13T15:55:24.873Z,99923.02
2018-04-13T15:57:52.349Z,99919.85
2018-04-13T16:00:19.854Z,99926.19
2018-04-13T16:02:47.368Z,99924.81
2018-04-13T16:05:14.908Z,99928.45
2018-04-13T16:07:42.388Z,99920.79
2018-04-13T16:10:09.889Z,99931.14
2018-04-13T16:12:37.430Z,99932.87
2018-04-13T16:15:04.933Z,99936.92
2018-04-13T16:17:33.018Z,99937.91
2018-04-13T16:20:00.501Z,99939.64
2018-04-13T16:22:27.985Z,99939.91
2018-04-13T16:24:55.494Z,99947.03
2018-04-13T16:27:22.968Z,99950.94
2018-04-13T16:29:50.484Z,99953.20
2018-04-13T16:32:17.969Z,99950.97
2018-04-13T16:34:45.446Z,99948.86
2018-04-13T16:37:12.981Z,99954.44
2018-04-13T16:39:40.465Z,99943.44
2018-04-13T16:42:07.992Z,99944.81
2018-04-13T16:44:35.543Z,99939.42
2018-04-13T16:47:03.052Z,99944.73
2018-04-13T16:49:30.580Z,99945.12
2018-04-13T16:51:58.073Z,99945.08
2018-04-13T16:54:25.761Z,99946.48
2018-04-13T16:56:53.242Z,99950.73
2018-04-13T16:59:20.734Z,99956.52
2018-04-13T17:01:48.254Z,99963.08
2018-04-13T17:04:15.738Z,99959.97
2018-04-13T17:06:43.413Z,99963.88
2018-04-13T17:09:10.895Z,99972.90
2018-04-13T17:11:38.393Z,99970.64
2018-04-13T17:14:05.931Z,99975.25
2018-04-13T17:16:33.425Z,99982.62
2018-04-13T17:19:00.934Z,99974.28
2018-04-13T17:21:28.411Z,99982.45
2018-04-13T17:23:56.109Z,99983.56
2018-04-13T17:26:25.501Z,99987.69
2018-04-13T17:28:53.038Z,99989.47
2018-04-13T17:31:20.592Z,99992.52
2018-04-13T17:33:48.138Z,99994.78
2018-04-13T17:36:15.922Z,99992.87
2018-04-13T17:38:43.418Z,100000.78
2018-04-13T17:41:10.913Z,100009.47
2018-04-13T17:43:38.430Z,100013.85
2018-04-13T17:46:05.925Z,100013.67
2018-04-13T17:48:33.581Z,100021.34
2018-04-13T17:51:01.076Z,100025.86
2018-04-13T17:53:28.594Z,100026.52
2018-04-13T17:55:56.129Z,100040.10
2018-04-13T17:58:23.625Z,100042.19
2018-04-13T18:00:51.329Z,100040.25
2018-04-13T18:03:18.822Z,100036.47
2018-04-13T18:05:46.313Z,100048.41
2018-04-13T18:08:14.272Z,100045.23
2018-04-13T18:10:41.773Z,100051.44
2018-04-13T18:13:09.710Z,100054.61
2018-04-13T18:15:38.010Z,100059.70
2018-04-13T18:18:05.740Z,100067.92
2018-04-13T18:20:33.973Z,100080.05
2018-04-13T18:23:01.474Z,100077.42
2018-04-13T18:25:29.014Z,100079.20
2018-04-13T18:27:56.509Z,100082.25
2018-04-13T18:30:24.050Z,100090.02
2018-04-13T18:32:51.588Z,100088.89
2018-04-13T18:35:19.086Z,100093.06
2018-04-13T18:37:47.582Z,100089.32
2018-04-13T18:40:15.086Z,100098.95
2018-04-13T18:42:43.000Z,100105.70
2018-04-13T18:45:10.534Z,100113.73
2018-04-13T18:47:38.037Z,100117.89
2018-04-13T18:50:05.727Z,100117.80
2018-04-13T18:52:33.245Z,100128.44
2018-04-13T18:55:00.751Z,100134.25
2018-04-13T18:57:28.298Z,100143.77
2018-04-13T18:59:55.812Z,100143.17
2018-04-13T19:02:24.042Z,100144.12
2018-04-13T19:04:51.922Z,100151.96
2018-04-13T19:07:19.626Z,100153.38
2018-04-13T19:09:47.479Z,100153.88
2018-04-13T19:12:15.025Z,100155.83
2018-04-13T19:14:42.848Z,100154.63
2018-04-13T19:17:11.269Z,100153.41
2018-04-13T19:19:39.909Z,100154.22
2018-04-13T19:22:07.799Z,100158.87
2018-04-13T19:24:37.016Z,100161.56
2018-04-13T19:27:05.415Z,100164.02
2018-04-13T19:29:34.207Z,100166.42
2018-04-13T19:32:02.769Z,100173.94
2018-04-13T19:34:31.274Z,100174.83
2018-04-13T19:36:59.483Z,100183.20
2018-04-13T19:39:27.353Z,100181.47
2018-04-13T19:41:55.754Z,100187.55
2018-04-13T19:44:23.428Z,100181.62
2018-04-13T19:46:51.212Z,100184.44
2018-04-13T19:49:19.436Z,100190.73
2018-04-13T19:51:47.421Z,100192.72
2018-04-13T19:54:15.460Z,100197.49
2018-04-13T19:56:43.342Z,100195.95
2018-04-13T19:59:12.961Z,100193.69
2018-04-13T20:01:41.594Z,100195.12
2018-04-13T20:04:10.528Z,100198.51
2018-04-13T20:06:38.753Z,100190.64
2018-04-13T20:09:06.827Z,100193.50
2018-04-13T20:11:35.833Z,100194.62
2018-04-13T20:14:03.820Z,100194.36
2018-04-13T20:16:31.977Z,100204.38
2018-04-13T20:18:59.883Z,100200.05
2018-04-13T20:21:27.766Z,100202.27
2018-04-13T20:23:56.559Z,100212.72
2018-04-13T20:26:24.080Z,100210.58
2018-04-13T20:28:51.842Z,100209.45
2018-04-13T20:31:19.436Z,100219.30
2018-04-13T20:33:46.977Z,100221.00
2018-04-13T20:36:14.602Z,100220.70
2018-04-13T20:38:43.003Z,100217.84
2018-04-13T20:41:10.694Z,100218.16
2018-04-13T20:43:38.853Z,100223.17
2018-04-13T20:46:06.587Z,100228.31
2018-04-13T20:48:34.698Z,100229.64
2018-04-13T20:51:03.089Z,100224.97
2018-04-13T20:53:31.315Z,100228.13
2018-04-13T20:55:58.953Z,100231.83
2018-04-13T20:58:26.477Z,100234.20
2018-04-13T21:00:54.064Z,100240.13
2018-04-13T21:03:21.616Z,100242.22
2018-04-13T21:05:49.282Z,100249.53
2018-04-13T21:08:16.809Z,100255.02
2018-04-13T21:10:44.374Z,100249.84
2018-04-13T21:13:12.052Z,100257.48
2018-04-13T21:15:39.593Z,100256.30
2018-04-13T21:18:07.673Z,100261.81
2018-04-13T21:20:35.747Z,100258.64
2018-04-13T21:23:03.245Z,100270.36
2018-04-13T21:25:30.808Z,100267.39
2018-04-13T21:27:59.372Z,100276.22
2018-04-13T21:30:27.184Z,100271.04
2018-04-13T21:32:54.684Z,100285.18
2018-04-13T21:35:22.193Z,100271.60
2018-04-13T21:37:49.785Z,100285.23
2018-04-13T21:40:17.952Z,100281.41
2018-04-13T21:42:45.792Z,100282.14
2018-04-13T21:45:13.298Z,100283.16
2018-04-13T21:47:40.801Z,100288.37
2018-04-13T21:50:08.348Z,100294.58
2018-04-13T21:52:36.470Z,100290.30
2018-04-13T21:55:04.180Z,100290.83
2018-04-13T21:57:31.773Z,100301.24
2018-04-13T21:59:59.261Z,100294.95
2018-04-13T22:02:26.802Z,100298.15
2018-04-13T22:04:54.315Z,100298.19
2018-04-13T22:07:22.039Z,100303.12
2018-04-13T22:09:49.545Z,100300.19
2018-04-13T22:12:28.922Z,100299.56
2018-04-13T22:14:56.409Z,100295.86
2018-04-13T22:17:23.889Z,100305.42
2018-04-13T22:19:51.438Z,100308.84
2018-04-13T22:22:18.913Z,100308.80
2018-04-13T22:24:46.399Z,100306.64
2018-04-13T22:27:13.901Z,100317.14
2018-04-13T22:29:41.385Z,100315.45
2018-04-13T22:32:08.865Z,100314.34
2018-04-13T22:34:36.440Z,100323.95
2018-04-13T22:37:03.919Z,100332.56
2018-04-13T22:39:31.404Z,100333.22
2018-04-13T22:41:58.944Z,100330.97
2018-04-13T22:44:26.431Z,100345.32
2018-04-13T22:46:53.925Z,100345.58
2018-04-13T22:49:21.422Z,100342.00
2018-04-13T22:51:48.920Z,100349.44
2018-04-13T22:54:16.556Z,100352.72
2018-04-13T22:56:44.033Z,100352.80
2018-04-13T22:59:11.527Z,100348.80
2018-04-13T23:01:39.037Z,100349.72
2018-04-13T23:04:06.568Z,100342.92
2018-04-13T23:06:34.218Z,100347.23
2018-04-13T23:09:01.701Z,100357.02
2018-04-13T23:11:29.176Z,100348.59
2018-04-13T23:13:56.693Z,100350.05
2018-04-13T23:16:24.181Z,100353.27
2018-04-13T23:18:51.696Z,100353.91
2018-04-13T23:21:19.173Z,100352.80
2018-04-13T23:23:46.652Z,100366.73
2018-04-13T23:26:14.149Z,100363.61
2018-04-13T23:28:41.622Z,100357.80
2018-04-13T23:31:09.321Z,100360.34
2018-04-13T23:33:36.797Z,100364.79
2018-04-13T23:36:04.269Z,100361.89
2018-04-13T23:38:31.791Z,100361.98
2018-04-13T23:40:59.265Z,100362.41
2018-04-13T23:43:26.789Z,100361.95
2018-04-13T23:45:54.270Z,100357.12
2018-04-13T23:48:22.073Z,100364.75
2018-04-13T23:50:49.564Z,100368.94
2018-04-13T23:53:17.059Z,100367.19
2018-04-13T23:55:44.597Z,100364.33
2018-04-13T23:58:12.114Z,100371.08
